createdAt,value
2023-04-12T00:00:11.242Z,96397.13
2023-04-12T00:02:39.434Z,96401.34
2023-04-12T00:05:06.548Z,96397.00
2023-04-12T00:07:33.070Z,96398.69
2023-04-12T00:09:59.591Z,96390.81
2023-04-12T00:12:25.995Z,96386.75
2023-04-12T00:14:52.633Z,96390.84
2023-04-12T00:17:19.406Z,96377.31
2023-04-12T00:19:47.615Z,96374.72
2023-04-12T00:22:14.962Z,96373.00
2023-04-12T00:24:41.885Z,96367.69
2023-04-12T00:27:08.866Z,96363.34
2023-04-12T00:29:35.527Z,96359.09
2023-04-12T00:32:03.845Z,96362.50
2023-04-12T00:34:31.038Z,96348.94
2023-04-12T00:36:57.707Z,96344.94
2023-04-12T00:39:24.156Z,96342.31
2023-04-12T00:41:50.859Z,96342.16
2023-04-12T00:44:18.258Z,96327.81
2023-04-12T00:46:47.885Z,96323.56
2023-04-12T00:49:15.530Z,96323.69
2023-04-12T00:51:42.369Z,96314.56
2023-04-12T00:54:08.894Z,96318.75
2023-04-12T00:56:36.873Z,96304.38
2023-04-12T00:59:03.735Z,96316.53
2023-04-12T01:01:31.935Z,96318.97
2023-04-12T01:04:04.680Z,96306.31
2023-04-12T01:06:46.703Z,96297.09
2023-04-12T01:09:13.822Z,96302.25
2023-04-12T01:12:08.825Z,96297.84
2023-04-12T01:14:46.929Z,96297.81
2023-04-12T01:17:20.791Z,96296.81
2023-04-12T01:20:01.600Z,96288.31
2023-04-12T01:22:53.365Z,96302.06
2023-04-12T01:25:24.399Z,96295.50
2023-04-12T01:27:57.337Z,96287.81
2023-04-12T01:30:28.046Z,96282.81
2023-04-12T01:32:57.157Z,96289.78
2023-04-12T01:35:28.890Z,96280.41
2023-04-12T01:37:57.059Z,96275.81
2023-04-12T01:40:24.991Z,96274.13
2023-04-12T01:42:51.734Z,96268.97
2023-04-12T01:45:18.173Z,96271.63
2023-04-12T01:47:44.667Z,96263.31
2023-04-12T01:50:16.990Z,96261.63
2023-04-12T01:52:52.817Z,96240.97
2023-04-12T01:55:21.986Z,96265.59
2023-04-12T01:57:50.341Z,96257.19
2023-04-12T02:00:19.745Z,96253.78
2023-04-12T02:02:46.832Z,96235.97
2023-04-12T02:05:13.838Z,96242.00
2023-04-12T02:07:41.114Z,96246.13
2023-04-12T02:10:07.744Z,96240.28
2023-04-12T02:12:34.113Z,96241.19
2023-04-12T02:15:00.702Z,96241.13
2023-04-12T02:17:27.225Z,96236.94
2023-04-12T02:19:53.843Z,96239.56
2023-04-12T02:22:20.545Z,96226.84
2023-04-12T02:24:47.922Z,96232.06
2023-04-12T02:27:14.344Z,96225.22
2023-04-12T02:29:41.317Z,96221.97
2023-04-12T02:32:07.839Z,96205.81
2023-04-12T02:34:36.680Z,96212.56
2023-04-12T02:37:04.008Z,96207.41
2023-04-12T02:39:32.219Z,96206.47
2023-04-12T02:41:58.733Z,96208.13
2023-04-12T02:44:25.175Z,96206.50
2023-04-12T02:46:51.922Z,96203.13
2023-04-12T02:49:18.369Z,96202.28
2023-04-12T02:51:45.607Z,96192.25
2023-04-12T02:54:12.250Z,96195.66
2023-04-12T02:56:38.699Z,96191.44
2023-04-12T02:59:05.198Z,96179.63
2023-04-12T03:01:32.192Z,96174.56
2023-04-12T03:03:59.011Z,96178.06
2023-04-12T03:06:25.718Z,96173.00
2023-04-12T03:08:52.263Z,96173.03
2023-04-12T03:11:18.760Z,96179.06
2023-04-12T03:13:45.116Z,96176.47
2023-04-12T03:16:29.621Z,96179.00
2023-04-12T03:18:56.892Z,96181.59
2023-04-12T03:21:23.467Z,96176.53
2023-04-12T03:23:49.889Z,96170.56
2023-04-12T03:26:16.330Z,96174.75
2023-04-12T03:28:42.885Z,96180.63
2023-04-12T03:31:10.760Z,96178.19
2023-04-12T03:33:37.310Z,96180.06
2023-04-12T03:36:05.432Z,96186.88
2023-04-12T03:38:32.178Z,96180.97
2023-04-12T03:40:58.671Z,96175.88
2023-04-12T03:43:25.725Z,96197.88
2023-04-12T03:45:52.247Z,96207.16
2023-04-12T03:48:18.717Z,96172.22
2023-04-12T03:50:45.291Z,96191.44
2023-04-12T03:53:12.183Z,96174.72
2023-04-12T03:55:38.917Z,96166.25
2023-04-12T03:58:05.449Z,96165.53
2023-04-12T04:00:31.932Z,96157.84
2023-04-12T04:03:03.079Z,96148.44
2023-04-12T04:05:30.735Z,96144.19
2023-04-12T04:08:02.235Z,96135.66
2023-04-12T04:10:28.834Z,96151.78
2023-04-12T04:12:55.221Z,96149.25
2023-04-12T04:15:21.820Z,96150.97
2023-04-12T04:17:49.172Z,96150.28
2023-04-12T04:20:16.020Z,96157.09
2023-04-12T04:22:42.409Z,96157.09
2023-04-12T04:25:09.294Z,96151.16
2023-04-12T04:27:38.219Z,96149.47
2023-04-12T04:30:06.107Z,96143.59
2023-04-12T04:32:33.936Z,96147.94
2023-04-12T04:35:00.383Z,96146.13
2023-04-12T04:37:28.426Z,96141.16
2023-04-12T04:39:54.795Z,96142.88
2023-04-12T04:42:21.513Z,96143.50
2023-04-12T04:44:51.017Z,96131.75
2023-04-12T04:47:17.603Z,96134.28
2023-04-12T04:49:44.848Z,96134.41
2023-04-12T04:52:11.204Z,96130.13
2023-04-12T04:54:37.749Z,96122.47
2023-04-12T04:57:07.953Z,96133.66
2023-04-12T04:59:34.501Z,96127.66
2023-04-12T05:02:01.009Z,96125.88
2023-04-12T05:04:27.584Z,96116.59
2023-04-12T05:06:54.128Z,96121.78
2023-04-12T05:09:20.794Z,96120.03
2023-04-12T05:11:47.354Z,96109.94
2023-04-12T05:14:14.075Z,96117.53
2023-04-12T05:16:40.675Z,96114.97
2023-04-12T05:19:07.420Z,96115.94
2023-04-12T05:21:34.445Z,96112.63
2023-04-12T05:24:01.389Z,96116.84
2023-04-12T05:26:27.843Z,96122.75
2023-04-12T05:28:54.383Z,96124.50
2023-04-12T05:31:20.991Z,96116.78
2023-04-12T05:33:49.312Z,96121.09
2023-04-12T05:36:15.699Z,96111.09
2023-04-12T05:38:43.301Z,96101.78
2023-04-12T05:41:09.717Z,96097.69
2023-04-12T05:43:37.976Z,96090.09
2023-04-12T05:46:07.675Z,96080.91
2023-04-12T05:48:34.210Z,96070.75
2023-04-12T05:51:02.503Z,96075.25
2023-04-12T05:53:29.663Z,96068.63
2023-04-12T05:55:56.157Z,96070.38
2023-04-12T05:58:22.605Z,96060.31
2023-04-12T06:00:49.577Z,96063.81
2023-04-12T06:03:16.111Z,96068.06
2023-04-12T06:05:42.592Z,96060.53
2023-04-12T06:08:10.191Z,96054.63
2023-04-12T06:10:36.824Z,96058.94
2023-04-12T06:13:03.268Z,96062.47
2023-04-12T06:15:31.955Z,96064.22
2023-04-12T06:17:59.560Z,96057.44
2023-04-12T06:20:26.264Z,96066.03
2023-04-12T06:22:52.722Z,96060.22
2023-04-12T06:25:19.147Z,96053.50
2023-04-12T06:27:45.631Z,96051.88
2023-04-12T06:30:12.340Z,96054.59
2023-04-12T06:32:39.043Z,96048.56
2023-04-12T06:35:06.037Z,96036.78
2023-04-12T06:37:32.532Z,96032.47
2023-04-12T06:39:59.202Z,96035.91
2023-04-12T06:42:25.758Z,96033.47
2023-04-12T06:44:52.378Z,96024.16
2023-04-12T06:47:18.788Z,96026.69
2023-04-12T06:49:45.264Z,96031.69
2023-04-12T06:52:11.748Z,96032.56
2023-04-12T06:54:39.294Z,96020.78
2023-04-12T06:57:11.120Z,96020.94
2023-04-12T06:59:37.566Z,96020.03
2023-04-12T07:02:04.118Z,96024.25
2023-04-12T07:04:30.661Z,96014.09
2023-04-12T07:06:57.017Z,96012.41
2023-04-12T07:09:23.462Z,96012.41
2023-04-12T07:11:49.870Z,96020.78
2023-04-12T07:14:16.522Z,96016.53
2023-04-12T07:16:43.642Z,96010.63
2023-04-12T07:19:10.119Z,96015.78
2023-04-12T07:21:36.546Z,96008.22
2023-04-12T07:24:03.408Z,95995.63
2023-04-12T07:26:31.289Z,95994.94
2023-04-12T07:28:57.863Z,95985.72
2023-04-12T07:31:24.584Z,95973.88
2023-04-12T07:33:51.260Z,95963.81
2023-04-12T07:36:21.060Z,95962.19
2023-04-12T07:38:48.796Z,95952.94
2023-04-12T07:41:15.577Z,95950.41
2023-04-12T07:43:42.032Z,95955.56
2023-04-12T07:46:08.779Z,95952.22
2023-04-12T07:48:35.670Z,95943.06
2023-04-12T07:51:02.185Z,95949.94
2023-04-12T07:53:28.975Z,95938.13
2023-04-12T07:55:56.641Z,95935.63
2023-04-12T07:58:24.521Z,95937.31
2023-04-12T08:00:51.619Z,95939.03
2023-04-12T08:03:19.147Z,95935.66
2023-04-12T08:05:47.191Z,95935.72
2023-04-12T08:08:13.643Z,95934.88
2023-04-12T08:10:41.373Z,95928.19
2023-04-12T08:13:08.827Z,95927.38
2023-04-12T08:15:35.358Z,95913.00
2023-04-12T08:18:02.430Z,95923.25
2023-04-12T08:20:29.346Z,95920.72
2023-04-12T08:22:56.168Z,95913.09
2023-04-12T08:25:22.983Z,95915.72
2023-04-12T08:27:50.885Z,95920.81
2023-04-12T08:30:26.562Z,95919.94
2023-04-12T08:32:53.925Z,95909.75
2023-04-12T08:35:20.646Z,95906.38
2023-04-12T08:37:47.072Z,95907.19
2023-04-12T08:40:13.838Z,95908.03
2023-04-12T08:42:41.171Z,95897.09
2023-04-12T08:45:09.974Z,95896.28
2023-04-12T08:47:38.744Z,95894.59
2023-04-12T08:50:10.746Z,95891.22
2023-04-12T08:52:37.946Z,95885.34
2023-04-12T08:55:05.863Z,95883.66
2023-04-12T08:57:34.483Z,95878.56
2023-04-12T09:00:02.045Z,95872.69
2023-04-12T09:02:28.969Z,95872.72
2023-04-12T09:04:56.114Z,95865.19
2023-04-12T09:07:23.805Z,95857.53
2023-04-12T09:09:50.795Z,95863.56
2023-04-12T09:12:19.955Z,95861.88
2023-04-12T09:14:46.758Z,95855.97
2023-04-12T09:17:23.900Z,95852.59
2023-04-12T09:19:50.653Z,95845.78
2023-04-12T09:22:17.231Z,95842.41
2023-04-12T09:24:53.213Z,95834.78
2023-04-12T09:27:21.108Z,95831.41
2023-04-12T09:29:51.498Z,95838.22
2023-04-12T09:32:27.078Z,95827.19
2023-04-12T09:34:57.852Z,95817.84
2023-04-12T09:37:24.626Z,95819.53
2023-04-12T09:40:10.265Z,95817.00
2023-04-12T09:42:51.591Z,95800.00
2023-04-12T09:45:22.356Z,95794.91
2023-04-12T09:47:49.395Z,95794.91
2023-04-12T09:50:27.327Z,95798.28
2023-04-12T09:52:54.905Z,95793.19
2023-04-12T09:55:23.744Z,95795.75
2023-04-12T09:57:52.497Z,95789.81
2023-04-12T10:00:22.534Z,95777.88
2023-04-12T10:02:52.472Z,95779.59
2023-04-12T10:05:21.923Z,95777.03
2023-04-12T10:07:49.079Z,95771.09
2023-04-12T10:10:17.607Z,95761.72
2023-04-12T10:12:46.641Z,95759.19
2023-04-12T10:15:17.288Z,95755.75
2023-04-12T10:17:46.823Z,95756.63
2023-04-12T10:20:15.445Z,95747.28
2023-04-12T10:22:43.943Z,95747.25
2023-04-12T10:25:22.280Z,95746.41
2023-04-12T10:27:49.804Z,95735.34
2023-04-12T10:30:28.253Z,95731.09
2023-04-12T10:33:14.596Z,95720.00
2023-04-12T10:36:13.625Z,95718.34
2023-04-12T10:38:47.226Z,95700.47
2023-04-12T10:41:13.632Z,95718.31
2023-04-12T10:43:47.683Z,95710.69
2023-04-12T10:46:40.482Z,95706.44
2023-04-12T10:49:11.679Z,95692.84
2023-04-12T10:51:38.705Z,95688.56
2023-04-12T10:54:08.220Z,95686.91
2023-04-12T10:56:39.337Z,95678.38
2023-04-12T10:59:09.690Z,95680.03
2023-04-12T11:01:38.859Z,95679.22
2023-04-12T11:04:18.096Z,95684.25
2023-04-12T11:06:55.425Z,95678.31
2023-04-12T11:09:30.114Z,95681.72
2023-04-12T11:11:59.587Z,95679.09
2023-04-12T11:14:35.940Z,95673.97
2023-04-12T11:17:08.461Z,95671.38
2023-04-12T11:19:38.206Z,95672.22
2023-04-12T11:22:06.666Z,95661.97
2023-04-12T11:24:35.356Z,95669.59
2023-04-12T11:27:02.081Z,95662.00
2023-04-12T11:29:29.045Z,95655.19
2023-04-12T11:31:56.183Z,95661.19
2023-04-12T11:34:23.140Z,95640.78
2023-04-12T11:36:53.266Z,95645.84
2023-04-12T11:39:22.086Z,95648.47
2023-04-12T11:41:49.228Z,95642.47
2023-04-12T11:44:21.917Z,95643.31
2023-04-12T11:46:49.367Z,95648.41
2023-04-12T11:49:17.330Z,95645.84
2023-04-12T11:51:44.201Z,95625.44
2023-04-12T11:54:11.539Z,95628.78
2023-04-12T11:56:38.597Z,95611.84
2023-04-12T11:59:06.067Z,95606.66
2023-04-12T12:01:35.570Z,95604.03
2023-04-12T12:04:02.803Z,95602.34
2023-04-12T12:06:31.596Z,95596.34
2023-04-12T12:08:59.082Z,95613.22
2023-04-12T12:11:26.573Z,95606.38
2023-04-12T12:13:57.014Z,95601.28
2023-04-12T12:16:26.574Z,95609.69
2023-04-12T12:18:53.733Z,95606.38
2023-04-12T12:21:20.929Z,95611.41
2023-04-12T12:23:48.951Z,95598.66
2023-04-12T12:26:23.697Z,95602.81
2023-04-12T12:28:53.150Z,95601.94
2023-04-12T12:31:25.001Z,95596.00
2023-04-12T12:33:59.239Z,95590.91
2023-04-12T12:36:43.865Z,95596.00
2023-04-12T12:39:11.971Z,95601.91
2023-04-12T12:41:39.589Z,95600.97
2023-04-12T12:44:07.736Z,95584.72
2023-04-12T12:49:03.620Z,95583.78
2023-04-12T12:51:31.435Z,95581.31
2023-04-12T12:53:58.079Z,95581.28
2023-04-12T12:56:24.761Z,95566.75
2023-04-12T12:58:51.311Z,95565.97
2023-04-12T13:01:17.814Z,95561.66
2023-04-12T13:03:44.318Z,95559.00
2023-04-12T13:06:11.344Z,95563.03
2023-04-12T13:08:38.029Z,95554.38
2023-04-12T13:11:04.760Z,95544.75
2023-04-12T13:13:31.441Z,95535.16
2023-04-12T13:15:58.046Z,95532.47
2023-04-12T13:18:24.564Z,95524.59
2023-04-12T13:20:51.403Z,95516.75
2023-04-12T13:23:17.964Z,95508.97
2023-04-12T13:25:44.416Z,95501.03
2023-04-12T13:28:12.280Z,95514.38
2023-04-12T13:30:38.918Z,95498.88
2023-04-12T13:33:05.718Z,95502.91
2023-04-12T13:35:32.304Z,95494.31
2023-04-12T13:37:58.865Z,95497.50
2023-04-12T13:40:25.390Z,95486.69
2023-04-12T13:42:51.927Z,95475.81
2023-04-12T13:45:18.398Z,95478.22
2023-04-12T13:47:44.951Z,95472.25
2023-04-12T13:50:11.575Z,95470.28
2023-04-12T13:52:38.190Z,95466.00
2023-04-12T13:55:08.194Z,95465.13
2023-04-12T13:57:35.652Z,95473.59
2023-04-12T14:00:02.183Z,95465.97
2023-04-12T14:02:30.825Z,95464.22
2023-04-12T14:04:58.056Z,95461.75
2023-04-12T14:07:24.730Z,95458.56
2023-04-12T14:09:51.268Z,95453.56
2023-04-12T14:12:17.837Z,95452.72
2023-04-12T14:14:44.369Z,95447.59
2023-04-12T14:17:11.305Z,95453.53
2023-04-12T14:19:37.874Z,95455.28
2023-04-12T14:22:04.384Z,95443.25
2023-04-12T14:24:31.431Z,95443.22
2023-04-12T14:26:59.430Z,95444.97
2023-04-12T14:29:26.733Z,95438.28
2023-04-12T14:31:53.234Z,95432.41
2023-04-12T14:34:19.644Z,95434.09
2023-04-12T14:36:46.121Z,95440.09
2023-04-12T14:39:14.094Z,95433.09
2023-04-12T14:41:41.832Z,95437.41
2023-04-12T14:44:08.396Z,95438.94
2023-04-12T14:46:34.856Z,95426.78
2023-04-12T14:49:01.906Z,95430.22
2023-04-12T14:51:29.664Z,95429.38
2023-04-12T14:53:57.097Z,95426.69
2023-04-12T14:56:28.829Z,95418.22
2023-04-12T14:58:57.252Z,95411.53
2023-04-12T15:01:24.922Z,95406.59
2023-04-12T15:03:52.480Z,95409.09
2023-04-12T15:06:20.844Z,95408.31
2023-04-12T15:08:49.327Z,95417.69
2023-04-12T15:11:18.881Z,95416.97
2023-04-12T15:13:45.405Z,95411.13
2023-04-12T15:16:15.095Z,95412.75
2023-04-12T15:18:41.878Z,95414.47
2023-04-12T15:21:10.274Z,95412.84
2023-04-12T15:23:37.812Z,95400.84
2023-04-12T15:26:06.632Z,95405.97
2023-04-12T15:28:33.391Z,95399.19
2023-04-12T15:31:01.025Z,95402.66
2023-04-12T15:33:27.876Z,95402.56
2023-04-12T15:35:57.764Z,95412.84
2023-04-12T15:38:25.729Z,95404.25
2023-04-12T15:40:57.035Z,95406.00
2023-04-12T15:43:24.637Z,95401.66
2023-04-12T15:45:54.416Z,95397.44
2023-04-12T15:48:23.127Z,95395.81
2023-04-12T15:50:51.004Z,95388.19
2023-04-12T15:53:21.308Z,95385.66
2023-04-12T15:55:48.830Z,95371.25
2023-04-12T15:58:16.057Z,95377.16
2023-04-12T16:00:44.701Z,95378.88
2023-04-12T16:03:12.845Z,95378.03
2023-04-12T16:05:40.995Z,95376.28
2023-04-12T16:08:09.306Z,95373.81
2023-04-12T16:10:38.142Z,95374.66
2023-04-12T16:13:10.205Z,95374.66
2023-04-12T16:15:37.564Z,95375.59
2023-04-12T16:18:04.202Z,95381.59
2023-04-12T16:20:31.609Z,95373.13
2023-04-12T16:22:58.840Z,95373.91
2023-04-12T16:25:29.724Z,95370.50
2023-04-12T16:27:56.553Z,95362.00
2023-04-12T16:30:23.295Z,95355.22
2023-04-12T16:32:51.272Z,95345.06
2023-04-12T16:35:18.491Z,95352.72
2023-04-12T16:37:47.613Z,95351.94
2023-04-12T16:40:14.266Z,95354.53
2023-04-12T16:42:42.613Z,95359.72
2023-04-12T16:45:11.155Z,95348.69
2023-04-12T16:47:38.245Z,95338.50
2023-04-12T16:50:08.176Z,95331.72
2023-04-12T16:52:36.013Z,95319.84
2023-04-12T16:55:02.848Z,95324.97
2023-04-12T16:57:29.673Z,95307.03
2023-04-12T16:59:57.134Z,95314.72
2023-04-12T17:02:24.616Z,95307.25
2023-04-12T17:04:51.336Z,95314.91
2023-04-12T17:07:18.845Z,95315.81
2023-04-12T17:09:45.394Z,95322.66
2023-04-12T17:12:12.511Z,95305.72
2023-04-12T17:14:39.187Z,95321.06
2023-04-12T17:17:06.690Z,95327.00
2023-04-12T17:19:33.529Z,95319.59
2023-04-12T17:22:00.154Z,95318.72
2023-04-12T17:24:26.972Z,95308.53
2023-04-12T17:26:53.864Z,95318.75
2023-04-12T17:29:20.644Z,95306.97
2023-04-12T17:31:50.654Z,95311.97
2023-04-12T17:34:19.834Z,95295.75
2023-04-12T17:36:46.762Z,95292.47
2023-04-12T17:39:13.371Z,95294.19
2023-04-12T17:41:39.982Z,95294.19
2023-04-12T17:44:06.702Z,95286.53
2023-04-12T17:46:34.731Z,95283.22
2023-04-12T17:49:04.094Z,95285.78
2023-04-12T17:51:32.115Z,95286.75
2023-04-12T17:54:00.248Z,95287.59
2023-04-12T17:56:26.897Z,95285.91
2023-04-12T17:58:53.399Z,95282.56
2023-04-12T18:01:19.917Z,95284.19
2023-04-12T18:03:47.576Z,95283.31
2023-04-12T18:06:14.318Z,95281.66
2023-04-12T18:08:40.818Z,95284.22
2023-04-12T18:11:07.987Z,95288.44
2023-04-12T18:13:34.579Z,95285.09
2023-04-12T18:16:01.517Z,95269.00
2023-04-12T18:18:28.236Z,95277.50
2023-04-12T18:20:54.757Z,95283.41
2023-04-12T18:23:21.600Z,95273.25
2023-04-12T18:25:48.251Z,95275.03
2023-04-12T18:28:14.962Z,95284.41
2023-04-12T18:30:41.487Z,95294.56
2023-04-12T18:33:08.388Z,95291.09
2023-04-12T18:35:35.179Z,95302.97
2023-04-12T18:38:01.742Z,95303.78
2023-04-12T18:40:28.595Z,95303.81
2023-04-12T18:42:55.246Z,95324.22
2023-04-12T18:45:22.842Z,95340.53
2023-04-12T18:47:51.206Z,95365.09
2023-04-12T18:50:19.347Z,95368.47
2023-04-12T18:52:46.094Z,95406.81
2023-04-12T18:55:12.650Z,95409.38
2023-04-12T18:57:39.277Z,95403.41
2023-04-12T19:00:13.518Z,95388.13
2023-04-12T19:02:40.934Z,95383.03
2023-04-12T19:05:10.321Z,95383.03
2023-04-12T19:07:37.226Z,95389.84
2023-04-12T19:10:04.462Z,95383.03
2023-04-12T19:12:31.761Z,95387.25
2023-04-12T19:14:58.573Z,95393.28
2023-04-12T19:17:27.697Z,95385.59
2023-04-12T19:19:54.846Z,95381.31
2023-04-12T19:22:21.626Z,95389.00
2023-04-12T19:24:49.781Z,95388.13
2023-04-12T19:27:16.707Z,95379.66
2023-04-12T19:29:44.040Z,95378.00
2023-04-12T19:32:13.459Z,95380.56
2023-04-12T19:34:40.843Z,95386.53
2023-04-12T19:37:08.050Z,95397.53
2023-04-12T19:39:34.597Z,95401.75
2023-04-12T19:42:02.273Z,95404.31
2023-04-12T19:44:29.257Z,95410.28
2023-04-12T19:46:56.061Z,95415.41
2023-04-12T19:49:23.899Z,95424.81
2023-04-12T19:51:50.853Z,95417.03
2023-04-12T19:54:18.903Z,95424.56
2023-04-12T19:56:49.119Z,95426.28
2023-04-12T19:59:17.609Z,95437.34
2023-04-12T20:01:50.294Z,95430.53
2023-04-12T20:04:21.554Z,95444.13
2023-04-12T20:06:49.180Z,95450.19
2023-04-12T20:09:15.971Z,95446.78
2023-04-12T20:11:42.385Z,95451.97
2023-04-12T20:14:09.027Z,95444.31
2023-04-12T20:16:36.736Z,95448.63
2023-04-12T20:19:04.923Z,95435.84
2023-04-12T20:21:32.276Z,95432.41
2023-04-12T20:23:59.400Z,95428.19
2023-04-12T20:26:32.085Z,95434.19
2023-04-12T20:28:59.763Z,95420.56
2023-04-12T20:31:27.469Z,95420.59
2023-04-12T20:33:57.356Z,95415.50
2023-04-12T20:36:26.101Z,95419.81
2023-04-12T20:38:53.663Z,95419.81
2023-04-12T20:41:20.352Z,95408.75
2023-04-12T20:43:48.110Z,95425.00
2023-04-12T20:46:17.369Z,95425.00
2023-04-12T20:48:48.063Z,95425.06
2023-04-12T20:51:15.969Z,95419.19
2023-04-12T20:53:49.041Z,95414.16
2023-04-12T20:56:18.670Z,95403.09
2023-04-12T20:58:48.336Z,95413.38
2023-04-12T21:01:15.124Z,95418.44
2023-04-12T21:03:42.338Z,95420.91
2023-04-12T21:06:10.638Z,95440.50
2023-04-12T21:08:37.965Z,95443.06
2023-04-12T21:11:04.568Z,95443.88
2023-04-12T21:13:31.143Z,95436.22
2023-04-12T21:15:58.726Z,95448.03
2023-04-12T21:18:25.425Z,95446.34
2023-04-12T21:20:51.988Z,95450.66
2023-04-12T21:23:18.374Z,95460.00
2023-04-12T21:25:50.643Z,95455.78
2023-04-12T21:28:18.000Z,95467.69
2023-04-12T21:30:44.777Z,95469.44
2023-04-12T21:33:16.440Z,95472.84
2023-04-12T21:35:43.085Z,95468.63
2023-04-12T21:38:09.590Z,95490.72
2023-04-12T21:40:36.162Z,95484.88
2023-04-12T21:43:02.615Z,95494.22
2023-04-12T21:45:29.200Z,95496.78
2023-04-12T21:47:55.836Z,95498.47
2023-04-12T21:50:22.473Z,95503.63
2023-04-12T21:52:49.148Z,95517.25
2023-04-12T21:55:16.053Z,95514.75
2023-04-12T21:57:42.646Z,95515.59
2023-04-12T22:00:09.987Z,95516.44
2023-04-12T22:02:36.972Z,95524.97
2023-04-12T22:05:04.000Z,95530.06
2023-04-12T22:07:30.682Z,95519.84
2023-04-12T22:09:58.543Z,95517.38
2023-04-12T22:12:25.644Z,95514.78
2023-04-12T22:14:52.089Z,95522.41
2023-04-12T22:17:22.168Z,95516.44
2023-04-12T22:19:49.055Z,95519.03
2023-04-12T22:22:16.087Z,95526.72
2023-04-12T22:24:42.912Z,95530.09
2023-04-12T22:27:09.463Z,95522.41
2023-04-12T22:29:37.581Z,95534.31
2023-04-12T22:32:04.419Z,95530.91
2023-04-12T22:34:32.328Z,95536.88
2023-04-12T22:36:58.810Z,95541.13
2023-04-12T22:39:26.519Z,95545.38
2023-04-12T22:41:53.410Z,95548.78
2023-04-12T22:44:23.200Z,95551.38
2023-04-12T22:46:50.797Z,95551.34
2023-04-12T22:49:20.057Z,95541.16
2023-04-12T22:51:46.608Z,95539.47
2023-04-12T22:54:13.141Z,95551.38
2023-04-12T22:56:45.164Z,95552.22
2023-04-12T22:59:14.295Z,95553.97
2023-04-12T23:01:41.741Z,95558.19
2023-04-12T23:04:15.965Z,95565.03
2023-04-12T23:06:43.511Z,95568.44
2023-04-12T23:09:11.461Z,95565.88
2023-04-12T23:11:39.960Z,95576.97
2023-04-12T23:14:07.822Z,95569.31
2023-04-12T23:16:35.267Z,95567.63
2023-04-12T23:19:05.202Z,95567.63
2023-04-12T23:21:32.261Z,95571.91
2023-04-12T23:23:59.062Z,95568.50
2023-04-12T23:26:27.215Z,95579.56
2023-04-12T23:28:53.728Z,95573.66
2023-04-12T23:31:23.156Z,95586.38
2023-04-12T23:33:50.661Z,95571.09
2023-04-12T23:36:17.198Z,95574.50
2023-04-12T23:38:44.351Z,95571.09
2023-04-12T23:41:11.825Z,95570.28
2023-04-12T23:43:38.393Z,95566.06
2023-04-12T23:46:05.448Z,95563.50
2023-04-12T23:48:32.643Z,95575.44
2023-04-12T23:50:59.819Z,95574.56
2023-04-12T23:53:26.564Z,95578.84
2023-04-12T23:55:53.663Z,95576.28
2023-04-12T23:58:21.246Z,95565.31
